sensor_id;sensor_type;location;lat;lon;timestamp;P1;durP1;ratioP1;P2;durP2;ratioP2
27201;SDS011;14717;46.924;15.474;2022-09-14T00:01:50;9.52;;;4.20;;
27201;SDS011;14717;46.924;15.474;2022-09-14T00:04:16;6.80;;;3.58;;
27201;SDS011;14717;46.924;15.474;2022-09-14T00:06:43;5.50;;;3.90;;
27201;SDS011;14717;46.924;15.474;2022-09-14T00:09:20;5.57;;;4.00;;
27201;SDS011;14717;46.924;15.474;2022-09-14T00:11:47;4.38;;;3.38;;
27201;SDS011;14717;46.924;15.474;2022-09-14T00:14:13;7.90;;;3.42;;
27201;SDS011;14717;46.924;15.474;2022-09-14T00:16:39;6.47;;;3.83;;
27201;SDS011;14717;46.924;15.474;2022-09-14T00:19:39;6.60;;;3.85;;
27201;SDS011;14717;46.924;15.474;2022-09-14T00:21:58;5.18;;;3.83;;
27201;SDS011;14717;46.924;15.474;2022-09-14T00:24:25;9.48;;;3.72;;
27201;SDS011;14717;46.924;15.474;2022-09-14T00:26:54;7.05;;;4.18;;
27201;SDS011;14717;46.924;15.474;2022-09-14T00:29:20;6.60;;;3.80;;
27201;SDS011;14717;46.924;15.474;2022-09-14T00:31:45;7.05;;;3.78;;
27201;SDS011;14717;46.924;15.474;2022-09-14T00:34:12;5.68;;;3.58;;
27201;SDS011;14717;46.924;15.474;2022-09-14T00:36:40;5.43;;;3.78;;
27201;SDS011;14717;46.924;15.474;2022-09-14T00:39:11;7.00;;;3.75;;
27201;SDS011;14717;46.924;15.474;2022-09-14T00:41:38;6.15;;;3.75;;
27201;SDS011;14717;46.924;15.474;2022-09-14T00:46:34;5.40;;;3.72;;
27201;SDS011;14717;46.924;15.474;2022-09-14T00:49:03;7.05;;;3.92;;
27201;SDS011;14717;46.924;15.474;2022-09-14T00:51:31;7.55;;;3.65;;
27201;SDS011;14717;46.924;15.474;2022-09-14T00:54:02;8.23;;;3.97;;
27201;SDS011;14717;46.924;15.474;2022-09-14T00:56:28;9.70;;;3.70;;
27201;SDS011;14717;46.924;15.474;2022-09-14T00:58:54;6.78;;;3.15;;
27201;SDS011;14717;46.924;15.474;2022-09-14T01:01:22;6.18;;;3.53;;
27201;SDS011;14717;46.924;15.474;2022-09-14T01:03:48;6.80;;;3.15;;
27201;SDS011;14717;46.924;15.474;2022-09-14T01:09:13;5.22;;;3.40;;
27201;SDS011;14717;46.924;15.474;2022-09-14T01:14:53;7.10;;;3.42;;
27201;SDS011;14717;46.924;15.474;2022-09-14T01:28:25;6.78;;;3.38;;
27201;SDS011;14717;46.924;15.474;2022-09-14T01:30:59;8.07;;;3.80;;
27201;SDS011;14717;46.924;15.474;2022-09-14T01:33:34;5.35;;;3.45;;
27201;SDS011;14717;46.924;15.474;2022-09-14T01:36:06;6.47;;;3.60;;
27201;SDS011;14717;46.924;15.474;2022-09-14T01:38:37;6.72;;;3.60;;
27201;SDS011;14717;46.924;15.474;2022-09-14T01:41:09;6.00;;;3.08;;
27201;SDS011;14717;46.924;15.474;2022-09-14T01:43:38;6.85;;;3.90;;
27201;SDS011;14717;46.924;15.474;2022-09-14T01:46:11;5.05;;;3.60;;
27201;SDS011;14717;46.924;15.474;2022-09-14T01:48:59;5.78;;;3.50;;
27201;SDS011;14717;46.924;15.474;2022-09-14T01:51:30;8.93;;;3.75;;
27201;SDS011;14717;46.924;15.474;2022-09-14T01:54:12;6.50;;;3.22;;
27201;SDS011;14717;46.924;15.474;2022-09-14T01:56:46;5.00;;;3.00;;
27201;SDS011;14717;46.924;15.474;2022-09-14T01:59:16;7.15;;;3.53;;
27201;SDS011;14717;46.924;15.474;2022-09-14T02:01:48;7.38;;;3.88;;
27201;SDS011;14717;46.924;15.474;2022-09-14T02:04:42;7.38;;;3.58;;
27201;SDS011;14717;46.924;15.474;2022-09-14T02:07:08;7.75;;;3.80;;
27201;SDS011;14717;46.924;15.474;2022-09-14T02:09:34;5.80;;;3.65;;
27201;SDS011;14717;46.924;15.474;2022-09-14T02:12:00;6.35;;;3.88;;
27201;SDS011;14717;46.924;15.474;2022-09-14T02:14:26;6.68;;;3.50;;
27201;SDS011;14717;46.924;15.474;2022-09-14T02:16:52;6.75;;;4.35;;
27201;SDS011;14717;46.924;15.474;2022-09-14T02:19:18;7.07;;;3.80;;
27201;SDS011;14717;46.924;15.474;2022-09-14T02:21:43;8.60;;;3.97;;
27201;SDS011;14717;46.924;15.474;2022-09-14T02:24:09;6.13;;;3.50;;
27201;SDS011;14717;46.924;15.474;2022-09-14T02:26:35;5.57;;;3.50;;
27201;SDS011;14717;46.924;15.474;2022-09-14T02:29:02;5.45;;;3.50;;
27201;SDS011;14717;46.924;15.474;2022-09-14T02:31:48;7.15;;;4.03;;
27201;SDS011;14717;46.924;15.474;2022-09-14T02:34:45;6.95;;;3.90;;
27201;SDS011;14717;46.924;15.474;2022-09-14T02:37:32;6.18;;;4.03;;
27201;SDS011;14717;46.924;15.474;2022-09-14T02:51:35;6.03;;;3.80;;
27201;SDS011;14717;46.924;15.474;2022-09-14T02:57:24;8.25;;;3.67;;
27201;SDS011;14717;46.924;15.474;2022-09-14T02:59:51;7.30;;;4.35;;
27201;SDS011;14717;46.924;15.474;2022-09-14T03:02:18;5.53;;;3.60;;
27201;SDS011;14717;46.924;15.474;2022-09-14T03:04:43;6.13;;;3.58;;
27201;SDS011;14717;46.924;15.474;2022-09-14T03:07:08;11.27;;;4.05;;
27201;SDS011;14717;46.924;15.474;2022-09-14T03:09:34;6.00;;;3.35;;
27201;SDS011;14717;46.924;15.474;2022-09-14T03:11:59;7.28;;;3.80;;
27201;SDS011;14717;46.924;15.474;2022-09-14T03:14:25;7.45;;;3.60;;
27201;SDS011;14717;46.924;15.474;2022-09-14T03:16:50;6.88;;;3.97;;
27201;SDS011;14717;46.924;15.474;2022-09-14T03:19:15;7.93;;;3.70;;
27201;SDS011;14717;46.924;15.474;2022-09-14T03:21:41;8.40;;;3.72;;
27201;SDS011;14717;46.924;15.474;2022-09-14T03:24:06;6.40;;;3.78;;
27201;SDS011;14717;46.924;15.474;2022-09-14T03:26:32;7.90;;;4.05;;
27201;SDS011;14717;46.924;15.474;2022-09-14T03:29:00;5.53;;;3.97;;
27201;SDS011;14717;46.924;15.474;2022-09-14T03:31:27;6.35;;;3.88;;
27201;SDS011;14717;46.924;15.474;2022-09-14T03:33:53;7.82;;;4.18;;
27201;SDS011;14717;46.924;15.474;2022-09-14T03:36:21;9.65;;;4.32;;
27201;SDS011;14717;46.924;15.474;2022-09-14T03:38:48;6.97;;;3.90;;
27201;SDS011;14717;46.924;15.474;2022-09-14T03:41:15;7.88;;;3.50;;
27201;SDS011;14717;46.924;15.474;2022-09-14T03:43:41;6.28;;;3.85;;
27201;SDS011;14717;46.924;15.474;2022-09-14T03:46:08;7.05;;;3.42;;
27201;SDS011;14717;46.924;15.474;2022-09-14T03:48:35;7.10;;;4.45;;
27201;SDS011;14717;46.924;15.474;2022-09-14T03:51:02;7.20;;;4.15;;
27201;SDS011;14717;46.924;15.474;2022-09-14T03:53:29;7.72;;;3.58;;
27201;SDS011;14717;46.924;15.474;2022-09-14T03:55:55;6.47;;;4.30;;
27201;SDS011;14717;46.924;15.474;2022-09-14T03:58:21;6.28;;;4.10;;
27201;SDS011;14717;46.924;15.474;2022-09-14T04:00:47;7.80;;;4.32;;
27201;SDS011;14717;46.924;15.474;2022-09-14T04:03:13;6.50;;;4.07;;
27201;SDS011;14717;46.924;15.474;2022-09-14T04:05:39;6.95;;;4.25;;
27201;SDS011;14717;46.924;15.474;2022-09-14T04:08:04;7.93;;;3.55;;
27201;SDS011;14717;46.924;15.474;2022-09-14T04:10:30;8.80;;;4.35;;
27201;SDS011;14717;46.924;15.474;2022-09-14T04:12:56;8.57;;;3.80;;
27201;SDS011;14717;46.924;15.474;2022-09-14T04:15:22;7.35;;;3.70;;
27201;SDS011;14717;46.924;15.474;2022-09-14T04:17:47;6.15;;;4.00;;
27201;SDS011;14717;46.924;15.474;2022-09-14T04:20:13;10.85;;;4.07;;
27201;SDS011;14717;46.924;15.474;2022-09-14T04:22:39;8.20;;;4.00;;
27201;SDS011;14717;46.924;15.474;2022-09-14T04:25:05;10.60;;;3.90;;
27201;SDS011;14717;46.924;15.474;2022-09-14T04:27:31;7.78;;;4.40;;
27201;SDS011;14717;46.924;15.474;2022-09-14T04:29:56;6.68;;;3.88;;
27201;SDS011;14717;46.924;15.474;2022-09-14T04:32:22;8.23;;;3.65;;
27201;SDS011;14717;46.924;15.474;2022-09-14T04:34:47;8.63;;;4.13;;
27201;SDS011;14717;46.924;15.474;2022-09-14T04:37:13;5.68;;;3.47;;
27201;SDS011;14717;46.924;15.474;2022-09-14T04:39:39;11.63;;;3.90;;
27201;SDS011;14717;46.924;15.474;2022-09-14T04:42:04;7.03;;;3.92;;
27201;SDS011;14717;46.924;15.474;2022-09-14T04:44:30;7.50;;;3.92;;
27201;SDS011;14717;46.924;15.474;2022-09-14T04:46:55;8.23;;;4.00;;
27201;SDS011;14717;46.924;15.474;2022-09-14T04:49:21;5.95;;;3.78;;
27201;SDS011;14717;46.924;15.474;2022-09-14T04:51:46;6.78;;;3.47;;
27201;SDS011;14717;46.924;15.474;2022-09-14T04:54:13;6.53;;;3.70;;
27201;SDS011;14717;46.924;15.474;2022-09-14T04:56:40;6.35;;;3.63;;
27201;SDS011;14717;46.924;15.474;2022-09-14T04:59:06;8.38;;;3.75;;
27201;SDS011;14717;46.924;15.474;2022-09-14T05:01:33;6.57;;;3.38;;
27201;SDS011;14717;46.924;15.474;2022-09-14T05:04:03;7.72;;;3.88;;
27201;SDS011;14717;46.924;15.474;2022-09-14T05:06:30;8.63;;;4.38;;
27201;SDS011;14717;46.924;15.474;2022-09-14T05:08:58;6.10;;;3.80;;
27201;SDS011;14717;46.924;15.474;2022-09-14T05:11:28;7.57;;;4.00;;
27201;SDS011;14717;46.924;15.474;2022-09-14T05:13:56;7.72;;;3.60;;
27201;SDS011;14717;46.924;15.474;2022-09-14T05:18:50;10.27;;;4.20;;
27201;SDS011;14717;46.924;15.474;2022-09-14T05:21:19;6.88;;;3.75;;
27201;SDS011;14717;46.924;15.474;2022-09-14T05:23:45;6.22;;;3.88;;
27201;SDS011;14717;46.924;15.474;2022-09-14T05:26:11;9.82;;;4.50;;
27201;SDS011;14717;46.924;15.474;2022-09-14T05:28:37;8.65;;;4.20;;
27201;SDS011;14717;46.924;15.474;2022-09-14T05:31:04;7.45;;;3.95;;
27201;SDS011;14717;46.924;15.474;2022-09-14T05:33:31;6.90;;;3.50;;
27201;SDS011;14717;46.924;15.474;2022-09-14T05:36:00;7.13;;;4.60;;
27201;SDS011;14717;46.924;15.474;2022-09-14T05:38:28;7.13;;;3.83;;
27201;SDS011;14717;46.924;15.474;2022-09-14T05:40:54;6.30;;;3.60;;
27201;SDS011;14717;46.924;15.474;2022-09-14T05:43:20;7.13;;;3.90;;
27201;SDS011;14717;46.924;15.474;2022-09-14T05:45:46;7.68;;;3.97;;
27201;SDS011;14717;46.924;15.474;2022-09-14T05:48:12;7.78;;;3.75;;
27201;SDS011;14717;46.924;15.474;2022-09-14T05:50:38;10.23;;;3.80;;
27201;SDS011;14717;46.924;15.474;2022-09-14T05:53:03;7.25;;;3.78;;
27201;SDS011;14717;46.924;15.474;2022-09-14T05:55:29;9.52;;;4.00;;
27201;SDS011;14717;46.924;15.474;2022-09-14T05:57:54;6.80;;;3.85;;
27201;SDS011;14717;46.924;15.474;2022-09-14T06:00:20;6.93;;;3.63;;
27201;SDS011;14717;46.924;15.474;2022-09-14T06:02:47;6.28;;;4.03;;
27201;SDS011;14717;46.924;15.474;2022-09-14T06:05:13;9.65;;;4.05;;
27201;SDS011;14717;46.924;15.474;2022-09-14T06:07:39;7.13;;;4.38;;
27201;SDS011;14717;46.924;15.474;2022-09-14T06:10:05;6.18;;;3.92;;
27201;SDS011;14717;46.924;15.474;2022-09-14T06:12:31;7.95;;;3.80;;
27201;SDS011;14717;46.924;15.474;2022-09-14T06:14:56;6.93;;;3.88;;
27201;SDS011;14717;46.924;15.474;2022-09-14T06:17:21;7.93;;;3.70;;
27201;SDS011;14717;46.924;15.474;2022-09-14T06:19:47;7.88;;;3.45;;
27201;SDS011;14717;46.924;15.474;2022-09-14T06:22:12;9.75;;;4.10;;
27201;SDS011;14717;46.924;15.474;2022-09-14T06:24:37;5.40;;;3.50;;
27201;SDS011;14717;46.924;15.474;2022-09-14T06:27:03;7.53;;;3.78;;
27201;SDS011;14717;46.924;15.474;2022-09-14T06:29:28;8.93;;;4.45;;
27201;SDS011;14717;46.924;15.474;2022-09-14T06:31:54;6.00;;;3.97;;
27201;SDS011;14717;46.924;15.474;2022-09-14T06:34:19;8.05;;;3.90;;
27201;SDS011;14717;46.924;15.474;2022-09-14T06:36:45;6.28;;;3.38;;
27201;SDS011;14717;46.924;15.474;2022-09-14T06:39:10;7.78;;;3.90;;
27201;SDS011;14717;46.924;15.474;2022-09-14T06:41:36;6.35;;;3.75;;
27201;SDS011;14717;46.924;15.474;2022-09-14T06:44:01;6.85;;;3.67;;
27201;SDS011;14717;46.924;15.474;2022-09-14T06:46:31;5.80;;;3.72;;
27201;SDS011;14717;46.924;15.474;2022-09-14T06:49:04;7.78;;;4.68;;
27201;SDS011;14717;46.924;15.474;2022-09-14T06:51:36;8.10;;;3.80;;
27201;SDS011;14717;46.924;15.474;2022-09-14T06:54:03;6.35;;;3.75;;
27201;SDS011;14717;46.924;15.474;2022-09-14T06:56:30;11.23;;;4.03;;
27201;SDS011;14717;46.924;15.474;2022-09-14T06:58:57;6.78;;;4.03;;
27201;SDS011;14717;46.924;15.474;2022-09-14T07:01:22;6.30;;;3.97;;
27201;SDS011;14717;46.924;15.474;2022-09-14T07:03:50;9.43;;;4.03;;
27201;SDS011;14717;46.924;15.474;2022-09-14T07:06:17;6.90;;;3.78;;
27201;SDS011;14717;46.924;15.474;2022-09-14T07:08:47;6.32;;;3.83;;
27201;SDS011;14717;46.924;15.474;2022-09-14T07:11:13;6.35;;;3.83;;
27201;SDS011;14717;46.924;15.474;2022-09-14T07:13:41;7.82;;;3.80;;
27201;SDS011;14717;46.924;15.474;2022-09-14T07:16:07;7.32;;;3.70;;
27201;SDS011;14717;46.924;15.474;2022-09-14T07:18:33;8.63;;;3.78;;
27201;SDS011;14717;46.924;15.474;2022-09-14T07:21:05;7.50;;;3.85;;
27201;SDS011;14717;46.924;15.474;2022-09-14T07:23:36;8.35;;;4.18;;
27201;SDS011;14717;46.924;15.474;2022-09-14T07:26:07;5.88;;;3.80;;
27201;SDS011;14717;46.924;15.474;2022-09-14T07:28:37;8.43;;;4.07;;
27201;SDS011;14717;46.924;15.474;2022-09-14T07:31:04;8.02;;;4.10;;
27201;SDS011;14717;46.924;15.474;2022-09-14T07:33:37;7.15;;;3.90;;
27201;SDS011;14717;46.924;15.474;2022-09-14T07:36:09;8.32;;;4.05;;
27201;SDS011;14717;46.924;15.474;2022-09-14T07:38:36;8.18;;;4.25;;
27201;SDS011;14717;46.924;15.474;2022-09-14T07:41:02;8.18;;;4.20;;
27201;SDS011;14717;46.924;15.474;2022-09-14T07:43:28;20.05;;;5.60;;
27201;SDS011;14717;46.924;15.474;2022-09-14T07:45:54;11.27;;;4.45;;
27201;SDS011;14717;46.924;15.474;2022-09-14T07:48:20;11.70;;;4.10;;
27201;SDS011;14717;46.924;15.474;2022-09-14T07:50:45;10.02;;;4.70;;
27201;SDS011;14717;46.924;15.474;2022-09-14T07:53:11;6.18;;;3.85;;
27201;SDS011;14717;46.924;15.474;2022-09-14T07:55:38;7.45;;;3.63;;
27201;SDS011;14717;46.924;15.474;2022-09-14T07:58:04;9.63;;;3.88;;
27201;SDS011;14717;46.924;15.474;2022-09-14T08:00:30;5.38;;;3.50;;
27201;SDS011;14717;46.924;15.474;2022-09-14T08:02:55;6.93;;;3.40;;
27201;SDS011;14717;46.924;15.474;2022-09-14T08:05:22;9.25;;;3.80;;
27201;SDS011;14717;46.924;15.474;2022-09-14T08:07:51;5.47;;;3.83;;
27201;SDS011;14717;46.924;15.474;2022-09-14T08:10:18;6.75;;;3.45;;
27201;SDS011;14717;46.924;15.474;2022-09-14T08:12:43;39.83;;;6.78;;
27201;SDS011;14717;46.924;15.474;2022-09-14T08:15:09;9.73;;;3.90;;
27201;SDS011;14717;46.924;15.474;2022-09-14T08:17:35;4.68;;;3.10;;
27201;SDS011;14717;46.924;15.474;2022-09-14T08:20:00;6.72;;;3.72;;
27201;SDS011;14717;46.924;15.474;2022-09-14T08:22:26;8.60;;;3.45;;
27201;SDS011;14717;46.924;15.474;2022-09-14T08:24:51;6.43;;;3.28;;
27201;SDS011;14717;46.924;15.474;2022-09-14T08:27:17;9.27;;;3.70;;
27201;SDS011;14717;46.924;15.474;2022-09-14T08:29:42;5.50;;;3.40;;
27201;SDS011;14717;46.924;15.474;2022-09-14T08:32:09;5.85;;;3.33;;
27201;SDS011;14717;46.924;15.474;2022-09-14T08:34:36;5.82;;;3.42;;
27201;SDS011;14717;46.924;15.474;2022-09-14T08:37:01;10.60;;;3.70;;
27201;SDS011;14717;46.924;15.474;2022-09-14T08:39:27;14.43;;;4.43;;
27201;SDS011;14717;46.924;15.474;2022-09-14T08:41:53;5.97;;;3.58;;
27201;SDS011;14717;46.924;15.474;2022-09-14T08:47:00;7.75;;;3.83;;
27201;SDS011;14717;46.924;15.474;2022-09-14T08:52:43;7.05;;;3.63;;
27201;SDS011;14717;46.924;15.474;2022-09-14T09:06:50;5.40;;;3.10;;
27201;SDS011;14717;46.924;15.474;2022-09-14T09:11:55;8.57;;;3.17;;
27201;SDS011;14717;46.924;15.474;2022-09-14T09:16:48;6.23;;;2.70;;
27201;SDS011;14717;46.924;15.474;2022-09-14T09:19:18;6.30;;;3.28;;
27201;SDS011;14717;46.924;15.474;2022-09-14T09:21:48;5.85;;;2.60;;
27201;SDS011;14717;46.924;15.474;2022-09-14T09:24:35;5.82;;;2.85;;
27201;SDS011;14717;46.924;15.474;2022-09-14T09:27:10;4.60;;;2.78;;
27201;SDS011;14717;46.924;15.474;2022-09-14T09:29:37;4.57;;;2.72;;
27201;SDS011;14717;46.924;15.474;2022-09-14T09:32:03;6.18;;;2.90;;
27201;SDS011;14717;46.924;15.474;2022-09-14T09:34:31;4.13;;;2.47;;
27201;SDS011;14717;46.924;15.474;2022-09-14T09:36:59;4.82;;;2.75;;
27201;SDS011;14717;46.924;15.474;2022-09-14T09:39:25;10.05;;;2.70;;
27201;SDS011;14717;46.924;15.474;2022-09-14T09:44:24;6.80;;;3.10;;
27201;SDS011;14717;46.924;15.474;2022-09-14T09:46:52;5.00;;;2.78;;
27201;SDS011;14717;46.924;15.474;2022-09-14T09:51:50;5.63;;;2.60;;
27201;SDS011;14717;46.924;15.474;2022-09-14T09:54:22;9.13;;;2.95;;
27201;SDS011;14717;46.924;15.474;2022-09-14T10:01:55;6.43;;;2.90;;
27201;SDS011;14717;46.924;15.474;2022-09-14T10:04:37;8.80;;;2.90;;
27201;SDS011;14717;46.924;15.474;2022-09-14T10:07:21;5.93;;;2.72;;
27201;SDS011;14717;46.924;15.474;2022-09-14T10:09:55;8.02;;;3.30;;
27201;SDS011;14717;46.924;15.474;2022-09-14T10:12:29;4.15;;;2.70;;
27201;SDS011;14717;46.924;15.474;2022-09-14T10:20:39;4.63;;;2.47;;
27201;SDS011;14717;46.924;15.474;2022-09-14T10:25:47;7.55;;;2.45;;
27201;SDS011;14717;46.924;15.474;2022-09-14T10:28:27;6.47;;;2.38;;
27201;SDS011;14717;46.924;15.474;2022-09-14T10:31:06;5.78;;;2.45;;
27201;SDS011;14717;46.924;15.474;2022-09-14T10:33:39;6.47;;;2.40;;
27201;SDS011;14717;46.924;15.474;2022-09-14T10:36:12;4.63;;;2.75;;
27201;SDS011;14717;46.924;15.474;2022-09-14T10:52:13;4.53;;;2.72;;
27201;SDS011;14717;46.924;15.474;2022-09-14T11:00:04;6.85;;;2.60;;
27201;SDS011;14717;46.924;15.474;2022-09-14T11:08:48;4.35;;;2.50;;
27201;SDS011;14717;46.924;15.474;2022-09-14T11:24:42;4.65;;;2.13;;
27201;SDS011;14717;46.924;15.474;2022-09-14T11:29:52;4.78;;;2.38;;
27201;SDS011;14717;46.924;15.474;2022-09-14T11:32:37;4.65;;;2.63;;
27201;SDS011;14717;46.924;15.474;2022-09-14T11:35:17;4.93;;;2.30;;
27201;SDS011;14717;46.924;15.474;2022-09-14T11:37:49;5.30;;;2.25;;
27201;SDS011;14717;46.924;15.474;2022-09-14T11:40:21;5.07;;;2.50;;
27201;SDS011;14717;46.924;15.474;2022-09-14T11:45:52;2.60;;;1.90;;
27201;SDS011;14717;46.924;15.474;2022-09-14T11:48:32;5.40;;;2.53;;
27201;SDS011;14717;46.924;15.474;2022-09-14T11:51:06;3.45;;;2.22;;
27201;SDS011;14717;46.924;15.474;2022-09-14T11:53:36;4.93;;;2.35;;
27201;SDS011;14717;46.924;15.474;2022-09-14T11:56:03;4.57;;;2.30;;
27201;SDS011;14717;46.924;15.474;2022-09-14T11:58:29;7.25;;;2.20;;
27201;SDS011;14717;46.924;15.474;2022-09-14T12:01:00;5.65;;;2.80;;
27201;SDS011;14717;46.924;15.474;2022-09-14T12:04:12;4.60;;;2.22;;
27201;SDS011;14717;46.924;15.474;2022-09-14T12:11:48;4.60;;;2.20;;
27201;SDS011;14717;46.924;15.474;2022-09-14T12:19:50;4.78;;;2.25;;
27201;SDS011;14717;46.924;15.474;2022-09-14T12:22:30;3.88;;;2.33;;
27201;SDS011;14717;46.924;15.474;2022-09-14T12:27:29;5.32;;;2.60;;
27201;SDS011;14717;46.924;15.474;2022-09-14T12:29:57;4.93;;;2.50;;
27201;SDS011;14717;46.924;15.474;2022-09-14T12:32:37;5.07;;;2.47;;
27201;SDS011;14717;46.924;15.474;2022-09-14T12:51:21;6.35;;;2.83;;
27201;SDS011;14717;46.924;15.474;2022-09-14T12:59:02;6.68;;;2.72;;
27201;SDS011;14717;46.924;15.474;2022-09-14T13:01:48;4.72;;;2.45;;
27201;SDS011;14717;46.924;15.474;2022-09-14T13:04:28;5.32;;;2.63;;
27201;SDS011;14717;46.924;15.474;2022-09-14T13:06:57;8.88;;;2.90;;
27201;SDS011;14717;46.924;15.474;2022-09-14T13:09:24;5.15;;;2.65;;
27201;SDS011;14717;46.924;15.474;2022-09-14T13:11:59;3.88;;;2.10;;
27201;SDS011;14717;46.924;15.474;2022-09-14T13:14:36;6.90;;;2.30;;
27201;SDS011;14717;46.924;15.474;2022-09-14T13:17:11;4.22;;;1.85;;
27201;SDS011;14717;46.924;15.474;2022-09-14T13:19:39;4.43;;;2.47;;
27201;SDS011;14717;46.924;15.474;2022-09-14T13:22:18;5.70;;;2.20;;
27201;SDS011;14717;46.924;15.474;2022-09-14T13:24:49;9.27;;;2.13;;
27201;SDS011;14717;46.924;15.474;2022-09-14T13:30:04;4.80;;;1.90;;
27201;SDS011;14717;46.924;15.474;2022-09-14T13:32:38;6.25;;;2.25;;
27201;SDS011;14717;46.924;15.474;2022-09-14T13:35:07;5.78;;;1.90;;
27201;SDS011;14717;46.924;15.474;2022-09-14T13:38:04;8.10;;;1.98;;
27201;SDS011;14717;46.924;15.474;2022-09-14T13:40:32;4.22;;;1.75;;
27201;SDS011;14717;46.924;15.474;2022-09-14T13:42:58;4.53;;;1.90;;
27201;SDS011;14717;46.924;15.474;2022-09-14T13:45:25;5.32;;;1.95;;
27201;SDS011;14717;46.924;15.474;2022-09-14T13:47:50;3.22;;;2.10;;
27201;SDS011;14717;46.924;15.474;2022-09-14T13:50:17;7.40;;;2.40;;
27201;SDS011;14717;46.924;15.474;2022-09-14T13:52:44;7.20;;;2.03;;
27201;SDS011;14717;46.924;15.474;2022-09-14T13:58:14;4.72;;;2.20;;
27201;SDS011;14717;46.924;15.474;2022-09-14T14:03:20;3.78;;;1.92;;
27201;SDS011;14717;46.924;15.474;2022-09-14T14:05:50;8.00;;;2.45;;
27201;SDS011;14717;46.924;15.474;2022-09-14T14:08:32;3.53;;;2.10;;
27201;SDS011;14717;46.924;15.474;2022-09-14T14:11:01;5.55;;;2.22;;
27201;SDS011;14717;46.924;15.474;2022-09-14T14:13:32;4.68;;;2.20;;
27201;SDS011;14717;46.924;15.474;2022-09-14T14:16:13;5.22;;;2.17;;
27201;SDS011;14717;46.924;15.474;2022-09-14T14:18:48;3.60;;;2.00;;
27201;SDS011;14717;46.924;15.474;2022-09-14T14:23:45;3.67;;;1.93;;
27201;SDS011;14717;46.924;15.474;2022-09-14T14:26:12;3.63;;;2.03;;
27201;SDS011;14717;46.924;15.474;2022-09-14T14:28:41;6.70;;;2.40;;
27201;SDS011;14717;46.924;15.474;2022-09-14T14:31:11;5.78;;;2.00;;
27201;SDS011;14717;46.924;15.474;2022-09-14T14:33:48;3.90;;;2.20;;
27201;SDS011;14717;46.924;15.474;2022-09-14T14:38:41;6.72;;;2.15;;
27201;SDS011;14717;46.924;15.474;2022-09-14T14:41:11;4.38;;;2.05;;
27201;SDS011;14717;46.924;15.474;2022-09-14T14:43:39;5.57;;;2.20;;
27201;SDS011;14717;46.924;15.474;2022-09-14T14:46:06;6.32;;;2.10;;
27201;SDS011;14717;46.924;15.474;2022-09-14T14:48:32;9.70;;;2.50;;
27201;SDS011;14717;46.924;15.474;2022-09-14T14:50:57;4.53;;;2.13;;
27201;SDS011;14717;46.924;15.474;2022-09-14T14:53:23;3.53;;;1.98;;
27201;SDS011;14717;46.924;15.474;2022-09-14T14:55:49;4.65;;;2.10;;
27201;SDS011;14717;46.924;15.474;2022-09-14T14:58:15;5.03;;;2.00;;
27201;SDS011;14717;46.924;15.474;2022-09-14T15:00:42;4.65;;;2.30;;
27201;SDS011;14717;46.924;15.474;2022-09-14T15:03:08;3.92;;;2.00;;
27201;SDS011;14717;46.924;15.474;2022-09-14T15:05:34;3.83;;;2.38;;
27201;SDS011;14717;46.924;15.474;2022-09-14T15:08:04;3.25;;;2.20;;
27201;SDS011;14717;46.924;15.474;2022-09-14T15:10:29;2.35;;;1.67;;
27201;SDS011;14717;46.924;15.474;2022-09-14T15:12:55;5.00;;;2.20;;
27201;SDS011;14717;46.924;15.474;2022-09-14T15:15:22;3.60;;;1.90;;
27201;SDS011;14717;46.924;15.474;2022-09-14T15:17:49;3.55;;;1.90;;
27201;SDS011;14717;46.924;15.474;2022-09-14T15:20:15;3.20;;;2.00;;
27201;SDS011;14717;46.924;15.474;2022-09-14T15:22:43;6.68;;;2.30;;
27201;SDS011;14717;46.924;15.474;2022-09-14T15:25:10;6.90;;;2.47;;
27201;SDS011;14717;46.924;15.474;2022-09-14T15:27:36;7.10;;;2.35;;
27201;SDS011;14717;46.924;15.474;2022-09-14T15:30:02;4.47;;;1.90;;
27201;SDS011;14717;46.924;15.474;2022-09-14T15:32:28;3.78;;;1.92;;
27201;SDS011;14717;46.924;15.474;2022-09-14T15:34:53;3.72;;;2.10;;
27201;SDS011;14717;46.924;15.474;2022-09-14T15:37:19;5.18;;;2.30;;
27201;SDS011;14717;46.924;15.474;2022-09-14T15:39:44;3.25;;;2.00;;
27201;SDS011;14717;46.924;15.474;2022-09-14T15:42:11;3.40;;;2.10;;
27201;SDS011;14717;46.924;15.474;2022-09-14T15:44:37;4.20;;;1.90;;
27201;SDS011;14717;46.924;15.474;2022-09-14T15:47:03;4.22;;;2.17;;
27201;SDS011;14717;46.924;15.474;2022-09-14T15:49:28;3.65;;;1.95;;
27201;SDS011;14717;46.924;15.474;2022-09-14T15:51:54;3.95;;;1.90;;
27201;SDS011;14717;46.924;15.474;2022-09-14T15:54:21;3.80;;;2.15;;
27201;SDS011;14717;46.924;15.474;2022-09-14T15:56:48;5.50;;;2.20;;
27201;SDS011;14717;46.924;15.474;2022-09-14T15:59:16;5.47;;;2.22;;
27201;SDS011;14717;46.924;15.474;2022-09-14T16:01:43;7.20;;;2.20;;
27201;SDS011;14717;46.924;15.474;2022-09-14T16:04:08;5.82;;;2.10;;
27201;SDS011;14717;46.924;15.474;2022-09-14T16:06:33;4.50;;;2.00;;
27201;SDS011;14717;46.924;15.474;2022-09-14T16:08:59;4.15;;;2.30;;
27201;SDS011;14717;46.924;15.474;2022-09-14T16:11:26;4.68;;;2.15;;
27201;SDS011;14717;46.924;15.474;2022-09-14T16:13:52;3.67;;;1.83;;
27201;SDS011;14717;46.924;15.474;2022-09-14T16:16:17;4.68;;;2.22;;
27201;SDS011;14717;46.924;15.474;2022-09-14T16:18:44;5.30;;;1.90;;
27201;SDS011;14717;46.924;15.474;2022-09-14T16:23:39;6.35;;;2.33;;
27201;SDS011;14717;46.924;15.474;2022-09-14T16:26:10;7.22;;;2.40;;
27201;SDS011;14717;46.924;15.474;2022-09-14T16:28:41;9.75;;;2.47;;
27201;SDS011;14717;46.924;15.474;2022-09-14T16:31:09;7.05;;;2.47;;
27201;SDS011;14717;46.924;15.474;2022-09-14T16:33:43;3.97;;;2.22;;
27201;SDS011;14717;46.924;15.474;2022-09-14T16:36:12;6.82;;;2.30;;
27201;SDS011;14717;46.924;15.474;2022-09-14T16:38:40;4.57;;;2.10;;
27201;SDS011;14717;46.924;15.474;2022-09-14T16:41:06;5.63;;;2.55;;
27201;SDS011;14717;46.924;15.474;2022-09-14T16:43:33;3.75;;;2.30;;
27201;SDS011;14717;46.924;15.474;2022-09-14T16:46:03;9.70;;;2.42;;
27201;SDS011;14717;46.924;15.474;2022-09-14T16:48:30;5.97;;;2.10;;
27201;SDS011;14717;46.924;15.474;2022-09-14T16:50:57;4.28;;;2.47;;
27201;SDS011;14717;46.924;15.474;2022-09-14T16:53:23;5.03;;;2.40;;
27201;SDS011;14717;46.924;15.474;2022-09-14T16:55:49;4.32;;;2.20;;
27201;SDS011;14717;46.924;15.474;2022-09-14T16:58:14;5.75;;;2.90;;
27201;SDS011;14717;46.924;15.474;2022-09-14T17:00:40;6.75;;;2.20;;
27201;SDS011;14717;46.924;15.474;2022-09-14T17:03:05;5.45;;;2.70;;
27201;SDS011;14717;46.924;15.474;2022-09-14T17:05:30;4.22;;;2.20;;
27201;SDS011;14717;46.924;15.474;2022-09-14T17:07:56;4.78;;;2.10;;
27201;SDS011;14717;46.924;15.474;2022-09-14T17:10:21;4.07;;;2.33;;
27201;SDS011;14717;46.924;15.474;2022-09-14T17:12:47;4.20;;;2.13;;
27201;SDS011;14717;46.924;15.474;2022-09-14T17:15:12;4.93;;;2.45;;
27201;SDS011;14717;46.924;15.474;2022-09-14T17:17:38;7.25;;;2.47;;
27201;SDS011;14717;46.924;15.474;2022-09-14T17:20:07;5.30;;;2.38;;
27201;SDS011;14717;46.924;15.474;2022-09-14T17:22:32;7.97;;;2.45;;
27201;SDS011;14717;46.924;15.474;2022-09-14T17:24:58;4.70;;;2.15;;
27201;SDS011;14717;46.924;15.474;2022-09-14T17:27:23;4.70;;;2.25;;
27201;SDS011;14717;46.924;15.474;2022-09-14T17:29:49;3.83;;;2.30;;
27201;SDS011;14717;46.924;15.474;2022-09-14T17:32:15;7.10;;;2.70;;
27201;SDS011;14717;46.924;15.474;2022-09-14T17:34:41;6.15;;;2.35;;